Time;durP1;ratioP1;P1;durP2;ratioP2;P2;SDS_P1;SDS_P2;PMS_P1;PMS_P2;Temp;Humidity;BMP_temperature;BMP_pressure;BME280_temperature;BME280_humidity;BME280_pressure;Samples;Min_cycle;Max_cycle;Signal;HPM_P1;HPM_P2
2023/05/14 00:01:33;;;;;;;15.57;10.63;;;12.20;99.90;;;;;;5036557;28;20029;-73
2023/05/14 00:03:59;;;;;;;17.17;12.18;;;12.20;99.90;;;;;;5053451;28;20119;-73
2023/05/14 00:06:25;;;;;;;16.48;12.05;;;12.20;99.90;;;;;;5054783;28;20095;-73
2023/05/14 00:08:50;;;;;;;14.27;11.18;;;12.20;99.90;;;;;;5054620;28;20036;-73
2023/05/14 00:11:16;;;;;;;12.25;9.65;;;12.20;99.90;;;;;;5053901;28;20403;-73
2023/05/14 00:13:42;;;;;;;15.02;11.02;;;12.10;99.90;;;;;;5053992;28;20466;-73
2023/05/14 00:16:08;;;;;;;11.38;9.93;;;12.10;99.90;;;;;;5053883;28;20381;-73
2023/05/14 00:18:33;;;;;;;13.10;10.50;;;12.10;99.90;;;;;;5054252;28;20450;-73
2023/05/14 00:20:59;;;;;;;12.80;10.27;;;12.10;99.90;;;;;;5053603;28;20025;-73
2023/05/14 00:23:25;;;;;;;12.60;9.57;;;12.10;99.90;;;;;;5054114;28;20029;-73
2023/05/14 00:25:51;;;;;;;11.27;9.73;;;12.10;99.90;;;;;;5053920;28;20144;-73
2023/05/14 00:28:16;;;;;;;13.13;11.38;;;12.10;99.90;;;;;;5053638;28;20116;-73
2023/05/14 00:30:42;;;;;;;13.40;9.68;;;12.10;99.90;;;;;;5053805;28;20444;-73
2023/05/14 00:33:08;;;;;;;12.55;10.75;;;12.00;99.90;;;;;;5053365;28;20029;-73
2023/05/14 00:35:34;;;;;;;15.40;11.27;;;12.00;99.90;;;;;;5053993;28;20040;-73
2023/05/14 00:38:01;;;;;;;11.43;10.18;;;11.90;99.90;;;;;;5053330;28;20028;-73
2023/05/14 00:40:27;;;;;;;17.58;12.02;;;11.90;99.90;;;;;;5053766;28;20100;-72
2023/05/14 00:42:54;;;;;;;16.80;11.23;;;11.90;99.90;;;;;;5054313;28;20021;-74
2023/05/14 00:45:20;;;;;;;15.65;11.35;;;11.80;99.90;;;;;;5053627;28;20025;-73
2023/05/14 00:47:47;;;;;;;12.77;11.07;;;11.80;99.90;;;;;;5054035;28;20367;-73
2023/05/14 00:50:15;;;;;;;12.23;10.43;;;11.80;99.90;;;;;;5053515;28;20021;-73
2023/05/14 00:52:41;;;;;;;12.55;10.20;;;11.80;99.90;;;;;;5052129;28;20324;-74
2023/05/14 00:55:07;;;;;;;9.98;8.98;;;11.80;99.90;;;;;;5053123;28;20045;-73
2023/05/14 00:57:35;;;;;;;12.93;9.65;;;11.70;99.90;;;;;;5053354;28;20029;-73
2023/05/14 01:00:02;;;;;;;11.00;8.93;;;11.70;99.90;;;;;;5053112;28;20057;-73
2023/05/14 01:02:28;;;;;;;11.63;9.15;;;11.80;99.90;;;;;;5035374;28;20336;-73
2023/05/14 01:04:54;;;;;;;11.43;8.38;;;11.70;99.90;;;;;;5052871;28;20107;-73
2023/05/14 01:07:37;;;;;;;12.55;8.93;;;11.80;99.90;;;;;;5052679;28;20431;-73
2023/05/14 01:10:10;;;;;;;11.43;8.35;;;11.80;99.90;;;;;;5052514;28;20428;-73
2023/05/14 01:13:19;;;;;;;10.82;7.97;;;11.80;99.90;;;;;;5053165;28;20476;-73
2023/05/14 01:15:46;;;;;;;7.82;6.40;;;11.80;99.90;;;;;;5035138;28;20120;-73
2023/05/14 01:18:16;;;;;;;11.20;6.88;;;11.90;99.90;;;;;;5052542;28;20021;-73
2023/05/14 01:20:43;;;;;;;8.48;6.40;;;11.90;99.90;;;;;;5053108;28;20365;-73
2023/05/14 01:23:09;;;;;;;8.48;6.45;;;11.90;99.90;;;;;;5052705;28;20029;-73
2023/05/14 01:25:35;;;;;;;7.72;5.97;;;12.00;99.90;;;;;;5053062;28;20102;-73
2023/05/14 01:28:22;;;;;;;7.57;6.50;;;12.00;99.90;;;;;;5052503;28;20083;-73
2023/05/14 01:30:58;;;;;;;6.80;5.50;;;12.00;99.90;;;;;;5052572;28;20049;-72
2023/05/14 01:33:26;;;;;;;9.70;6.60;;;12.00;99.90;;;;;;5053168;28;20021;-72
2023/05/14 01:35:53;;;;;;;8.90;5.80;;;12.00;99.90;;;;;;5052885;28;20087;-73
2023/05/14 01:38:20;;;;;;;5.63;4.82;;;12.00;99.90;;;;;;5052293;28;20025;-73
2023/05/14 01:40:47;;;;;;;11.00;6.20;;;12.00;99.90;;;;;;5052655;28;20033;-73
2023/05/14 01:43:13;;;;;;;7.78;5.88;;;12.00;99.90;;;;;;5052251;28;20056;-72
2023/05/14 01:45:40;;;;;;;7.30;6.25;;;11.90;99.90;;;;;;5052114;28;20040;-73
2023/05/14 01:48:06;;;;;;;7.32;5.95;;;11.90;99.90;;;;;;5052028;28;20055;-73
2023/05/14 01:50:31;;;;;;;7.25;5.45;;;12.00;99.90;;;;;;5052677;28;20055;-72
2023/05/14 01:52:57;;;;;;;7.22;5.60;;;11.90;99.90;;;;;;5052274;28;20028;-72
2023/05/14 01:55:23;;;;;;;6.78;6.13;;;11.90;99.90;;;;;;5051916;28;20031;-74
2023/05/14 01:57:53;;;;;;;9.25;5.95;;;11.80;99.90;;;;;;5052164;28;20021;-71
2023/05/14 02:00:19;;;;;;;6.45;5.22;;;11.80;99.90;;;;;;5051863;28;20139;-72
2023/05/14 02:02:45;;;;;;;6.97;5.80;;;11.80;99.90;;;;;;5052689;28;20036;-73
2023/05/14 02:05:12;;;;;;;8.93;6.00;;;11.80;99.90;;;;;;5051709;28;20454;-73
2023/05/14 02:07:38;;;;;;;9.85;6.32;;;11.70;99.90;;;;;;5052181;28;20411;-73
2023/05/14 02:10:04;;;;;;;7.60;6.20;;;11.70;99.90;;;;;;5051951;28;20036;-74
2023/05/14 02:12:30;;;;;;;7.43;6.22;;;11.60;99.90;;;;;;5052492;28;20063;-73
2023/05/14 02:14:55;;;;;;;7.93;5.57;;;11.50;99.90;;;;;;5034190;28;20064;-73
2023/05/14 02:17:23;;;;;;;8.57;6.47;;;11.50;99.90;;;;;;5051533;28;20647;-73
2023/05/14 02:19:49;;;;;;;8.70;6.40;;;11.40;99.90;;;;;;5051987;28;20079;-73
2023/05/14 02:22:14;;;;;;;7.22;6.47;;;11.40;99.90;;;;;;5051349;28;20033;-73
2023/05/14 02:24:40;;;;;;;8.60;6.25;;;11.30;99.90;;;;;;5051864;28;20036;-73
2023/05/14 02:27:06;;;;;;;7.35;5.97;;;11.30;99.90;;;;;;5051237;28;20040;-73
2023/05/14 02:29:32;;;;;;;8.93;6.65;;;11.30;99.90;;;;;;5051294;28;20053;-73
2023/05/14 02:31:57;;;;;;;8.93;6.25;;;11.20;99.90;;;;;;5051409;28;20390;-73
2023/05/14 02:34:24;;;;;;;8.75;6.95;;;11.20;99.90;;;;;;5050921;28;20102;-73
2023/05/14 02:36:50;;;;;;;6.90;6.20;;;11.20;99.90;;;;;;5052153;28;20048;-73
2023/05/14 02:39:15;;;;;;;7.43;6.63;;;11.20;99.90;;;;;;5051750;28;20029;-73
2023/05/14 02:41:41;;;;;;;7.45;6.13;;;11.20;99.90;;;;;;5051578;28;20033;-73
2023/05/14 02:44:06;;;;;;;7.75;6.13;;;11.20;99.90;;;;;;5050985;28;20342;-74
2023/05/14 02:46:32;;;;;;;7.07;6.10;;;11.20;99.90;;;;;;5051571;28;20093;-73
2023/05/14 02:48:58;;;;;;;9.32;6.45;;;11.20;99.90;;;;;;5051564;28;20462;-73
2023/05/14 02:51:25;;;;;;;8.88;7.03;;;11.20;99.90;;;;;;5050973;28;20647;-73
2023/05/14 02:53:50;;;;;;;12.80;7.22;;;11.20;99.90;;;;;;5051194;28;20072;-73
2023/05/14 02:56:16;;;;;;;7.07;6.10;;;11.20;99.90;;;;;;5050850;28;20077;-73
2023/05/14 02:58:42;;;;;;;8.38;6.30;;;11.10;99.90;;;;;;5050941;28;20025;-73
2023/05/14 03:01:08;;;;;;;8.85;6.63;;;11.10;99.90;;;;;;5050790;28;20033;-73
2023/05/14 03:03:33;;;;;;;6.78;6.10;;;11.10;99.90;;;;;;5051278;28;20132;-73
2023/05/14 03:05:59;;;;;;;10.88;7.18;;;11.00;99.90;;;;;;5051194;28;20531;-72
2023/05/14 03:08:25;;;;;;;8.10;7.30;;;11.00;99.90;;;;;;5050992;28;20025;-73
2023/05/14 03:10:51;;;;;;;8.52;7.30;;;11.00;99.90;;;;;;5051484;28;20036;-73
2023/05/14 03:13:18;;;;;;;8.15;7.32;;;11.00;99.90;;;;;;5032540;28;20120;-73
2023/05/14 03:15:45;;;;;;;11.30;7.85;;;10.90;99.90;;;;;;5050429;28;20033;-73
2023/05/14 03:18:12;;;;;;;11.70;7.53;;;10.90;99.90;;;;;;5050517;28;20037;-73
2023/05/14 03:20:37;;;;;;;7.97;7.28;;;10.80;99.90;;;;;;5050986;28;20416;-73
2023/05/14 03:23:03;;;;;;;7.07;6.38;;;10.80;99.90;;;;;;5051040;28;20136;-73
2023/05/14 03:25:29;;;;;;;7.97;7.18;;;10.80;99.90;;;;;;5050308;28;20069;-72
2023/05/14 03:27:55;;;;;;;10.15;7.72;;;10.80;99.90;;;;;;5050902;28;20387;-73
2023/05/14 03:30:21;;;;;;;10.98;7.30;;;10.80;99.90;;;;;;5050046;28;20410;-73
2023/05/14 03:32:46;;;;;;;8.07;7.28;;;10.90;99.90;;;;;;5051101;28;20098;-73
2023/05/14 03:35:12;;;;;;;10.23;7.75;;;10.80;99.90;;;;;;5050928;28;20039;-74
2023/05/14 03:37:38;;;;;;;8.68;7.78;;;10.80;99.90;;;;;;5051452;28;20037;-73
2023/05/14 03:40:04;;;;;;;10.25;8.02;;;10.80;99.90;;;;;;5051157;28;20029;-73
2023/05/14 03:42:30;;;;;;;9.57;7.78;;;10.80;99.90;;;;;;5050396;28;20043;-73
2023/05/14 03:44:56;;;;;;;13.32;8.13;;;10.90;99.90;;;;;;5033071;28;20037;-73
2023/05/14 03:47:21;;;;;;;8.45;7.40;;;10.90;99.90;;;;;;5050382;28;20025;-73
2023/05/14 03:49:47;;;;;;;11.05;7.10;;;10.80;99.90;;;;;;5050749;28;20036;-73
2023/05/14 03:52:13;;;;;;;8.52;6.65;;;10.80;99.90;;;;;;5049940;28;20362;-73
2023/05/14 03:54:40;;;;;;;8.50;7.22;;;10.90;99.90;;;;;;5050759;28;20071;-73
2023/05/14 03:57:06;;;;;;;9.18;7.40;;;10.90;99.90;;;;;;5050779;28;20104;-73
2023/05/14 03:59:31;;;;;;;10.93;7.78;;;10.90;99.90;;;;;;5050176;28;20454;-73
2023/05/14 04:01:57;;;;;;;8.25;7.35;;;10.90;99.90;;;;;;5050760;28;20036;-73
2023/05/14 04:04:23;;;;;;;9.35;6.82;;;10.90;99.90;;;;;;5050574;28;20033;-72
2023/05/14 04:06:48;;;;;;;8.38;6.85;;;10.90;99.90;;;;;;5050400;28;20025;-73
2023/05/14 04:09:14;;;;;;;8.57;7.50;;;11.00;99.90;;;;;;5050168;28;20036;-73
2023/05/14 04:11:40;;;;;;;8.45;7.15;;;10.90;99.90;;;;;;5050641;28;20044;-73
2023/05/14 04:14:06;;;;;;;8.63;7.72;;;11.00;99.90;;;;;;5050512;28;20068;-73
2023/05/14 04:16:31;;;;;;;8.45;7.53;;;10.90;99.90;;;;;;5049867;28;20048;-73
2023/05/14 04:18:57;;;;;;;7.70;6.90;;;11.00;99.90;;;;;;5050398;28;20529;-73
2023/05/14 04:21:23;;;;;;;8.40;7.40;;;11.00;99.90;;;;;;5049836;28;20108;-73
2023/05/14 04:23:50;;;;;;;9.55;7.35;;;11.00;99.90;;;;;;5050424;28;20072;-73
2023/05/14 04:26:16;;;;;;;7.63;6.82;;;11.10;99.90;;;;;;5049798;28;20041;-74
2023/05/14 04:28:42;;;;;;;9.77;7.47;;;11.10;99.90;;;;;;5053796;28;20054;-73
2023/05/14 04:31:07;;;;;;;8.52;6.65;;;11.10;99.90;;;;;;5054451;28;20056;-73
2023/05/14 04:33:33;;;;;;;6.70;6.03;;;11.20;99.90;;;;;;5053682;28;20040;-73
2023/05/14 04:35:59;;;;;;;9.00;6.75;;;11.20;99.90;;;;;;5054552;28;20032;-73
2023/05/14 04:38:25;;;;;;;8.77;6.78;;;11.20;99.90;;;;;;5053699;28;20374;-73
2023/05/14 04:40:51;;;;;;;8.50;7.13;;;11.20;99.90;;;;;;5053760;28;20120;-72
2023/05/14 04:43:16;;;;;;;8.07;6.97;;;11.20;99.90;;;;;;5053089;28;20024;-73
2023/05/14 04:45:42;;;;;;;8.57;7.25;;;11.20;99.90;;;;;;5053859;28;20108;-73
2023/05/14 04:48:08;;;;;;;8.30;6.93;;;11.10;99.90;;;;;;5054140;28;20021;-73
2023/05/14 04:50:34;;;;;;;7.57;6.72;;;11.20;99.90;;;;;;5053827;28;20027;-73
2023/05/14 04:53:00;;;;;;;7.53;6.80;;;11.20;99.90;;;;;;5053574;28;20355;-73
2023/05/14 04:55:26;;;;;;;9.63;7.97;;;11.20;99.90;;;;;;5052933;28;20116;-73
2023/05/14 04:57:51;;;;;;;7.63;6.85;;;11.20;99.90;;;;;;5053155;28;20091;-73
2023/05/14 05:00:20;;;;;;;7.97;6.38;;;11.10;99.90;;;;;;5052873;28;20025;-73
2023/05/14 05:02:46;;;;;;;6.93;6.30;;;11.10;99.90;;;;;;5053518;28;20118;-73
2023/05/14 05:05:12;;;;;;;7.57;6.65;;;11.10;99.90;;;;;;5052964;28;20040;-74
2023/05/14 05:07:37;;;;;;;7.63;6.38;;;11.10;99.90;;;;;;5052866;28;20025;-73
2023/05/14 05:10:03;;;;;;;7.57;6.78;;;11.20;99.90;;;;;;5053692;28;20021;-73
2023/05/14 05:12:29;;;;;;;10.02;6.45;;;11.20;99.90;;;;;;5052953;28;20078;-73
2023/05/14 05:14:58;;;;;;;7.70;6.90;;;11.20;99.90;;;;;;5052978;28;20083;-72
2023/05/14 05:17:24;;;;;;;7.05;6.32;;;11.30;99.90;;;;;;5052114;28;20041;-72
2023/05/14 05:19:50;;;;;;;10.43;7.18;;;11.30;99.90;;;;;;5053039;28;20021;-72
2023/05/14 05:22:16;;;;;;;8.35;7.53;;;11.40;99.90;;;;;;5052493;28;20041;-73
2023/05/14 05:24:41;;;;;;;9.73;8.05;;;11.40;99.90;;;;;;5052761;28;20153;-72
2023/05/14 05:27:07;;;;;;;7.90;7.10;;;11.40;99.90;;;;;;5052559;28;20378;-72
2023/05/14 05:29:34;;;;;;;8.00;6.80;;;11.50;99.90;;;;;;5052181;28;20060;-72
2023/05/14 05:32:00;;;;;;;8.77;6.57;;;11.50;99.90;;;;;;5052699;28;20021;-72
2023/05/14 05:34:26;;;;;;;8.82;6.72;;;11.50;99.90;;;;;;5052000;28;20036;-72
2023/05/14 05:36:51;;;;;;;7.80;6.90;;;11.50;99.90;;;;;;5052691;28;20071;-72
2023/05/14 05:39:17;;;;;;;8.02;6.75;;;11.50;99.90;;;;;;5051426;28;20025;-73
2023/05/14 05:41:43;;;;;;;7.72;6.82;;;11.50;99.90;;;;;;5052424;28;20029;-72
2023/05/14 05:44:09;;;;;;;10.35;7.43;;;11.60;99.90;;;;;;5052407;28;20033;-72
2023/05/14 05:46:34;;;;;;;7.85;7.05;;;11.60;99.90;;;;;;5052216;28;20025;-72
2023/05/14 05:49:00;;;;;;;7.47;6.50;;;11.60;99.90;;;;;;5052406;28;20025;-72
2023/05/14 05:51:26;;;;;;;7.88;7.07;;;11.60;99.90;;;;;;5051831;28;20446;-72
2023/05/14 05:53:52;;;;;;;7.25;6.43;;;11.70;99.90;;;;;;5052327;28;20037;-72
2023/05/14 05:56:17;;;;;;;9.27;7.63;;;11.80;99.90;;;;;;5051957;28;20139;-73
2023/05/14 05:58:43;;;;;;;7.47;6.60;;;11.80;99.90;;;;;;5052382;28;20025;-71
2023/05/14 06:01:09;;;;;;;9.60;7.18;;;11.90;99.90;;;;;;5052106;28;20029;-72
2023/05/14 06:03:35;;;;;;;8.55;6.53;;;11.90;99.90;;;;;;5052140;28;20446;-72
2023/05/14 06:06:01;;;;;;;8.93;7.32;;;11.90;99.90;;;;;;5052231;28;20489;-72
2023/05/14 06:08:26;;;;;;;8.27;7.50;;;12.00;99.90;;;;;;5051682;28;20393;-72
2023/05/14 06:10:52;;;;;;;8.60;7.50;;;12.00;99.90;;;;;;5052114;28;20355;-72
2023/05/14 06:13:18;;;;;;;8.68;7.15;;;12.00;99.90;;;;;;5033382;28;20060;-72
2023/05/14 06:15:43;;;;;;;7.40;6.70;;;12.10;99.90;;;;;;5051992;28;20033;-72
2023/05/14 06:18:09;;;;;;;9.80;7.38;;;12.20;99.90;;;;;;5051840;28;20457;-72
2023/05/14 06:20:35;;;;;;;7.55;6.75;;;12.20;99.90;;;;;;5051332;28;20017;-72
2023/05/14 06:23:00;;;;;;;10.48;6.72;;;12.20;99.90;;;;;;5051764;28;20362;-72
2023/05/14 06:25:26;;;;;;;9.43;7.18;;;12.20;99.90;;;;;;5032964;28;20041;-72
2023/05/14 06:27:52;;;;;;;8.52;5.93;;;12.20;99.90;;;;;;5051746;28;20021;-72
2023/05/14 06:30:18;;;;;;;7.72;5.60;;;12.30;99.90;;;;;;5051198;28;20548;-74
2023/05/14 06:32:43;;;;;;;7.90;6.93;;;12.30;99.90;;;;;;5051535;28;20047;-73
2023/05/14 06:35:09;;;;;;;8.13;6.40;;;12.30;99.90;;;;;;5051668;28;20028;-72
2023/05/14 06:37:35;;;;;;;7.95;6.13;;;12.40;99.90;;;;;;5051603;28;20382;-72
2023/05/14 06:40:01;;;;;;;7.47;6.70;;;12.40;99.90;;;;;;5033720;28;20028;-72
2023/05/14 06:42:26;;;;;;;7.25;5.78;;;12.40;99.90;;;;;;5050831;28;20029;-72
2023/05/14 06:44:53;;;;;;;5.78;5.18;;;12.50;99.90;;;;;;5051706;28;20029;-71
2023/05/14 06:47:19;;;;;;;8.50;5.40;;;12.50;99.90;;;;;;5051493;28;20353;-75
2023/05/14 06:49:45;;;;;;;9.60;5.47;;;12.70;99.90;;;;;;5051377;28;20025;-71
2023/05/14 06:52:10;;;;;;;6.38;4.65;;;12.70;99.90;;;;;;5050931;28;20055;-73
2023/05/14 06:54:36;;;;;;;8.20;5.15;;;12.90;99.90;;;;;;5051107;28;20029;-74
2023/05/14 06:57:02;;;;;;;5.78;5.05;;;13.00;99.90;;;;;;5051447;28;20036;-73
2023/05/14 06:59:28;;;;;;;4.78;4.13;;;13.10;99.90;;;;;;5051053;28;20032;-73
2023/05/14 07:01:54;;;;;;;6.03;5.03;;;13.20;99.90;;;;;;5051443;28;20091;-73
2023/05/14 07:04:20;;;;;;;6.30;4.20;;;13.30;99.90;;;;;;5051834;28;20037;-73
2023/05/14 07:06:45;;;;;;;6.57;4.15;;;13.30;99.90;;;;;;5051346;28;20152;-73
2023/05/14 07:09:12;;;;;;;4.80;4.30;;;13.40;99.90;;;;;;5051544;28;20029;-73
2023/05/14 07:11:37;;;;;;;5.50;4.28;;;13.40;99.90;;;;;;5051139;28;20085;-74
2023/05/14 07:14:03;;;;;;;5.30;4.80;;;13.50;99.90;;;;;;5051874;28;20116;-71
2023/05/14 07:16:29;;;;;;;5.10;4.60;;;13.50;99.90;;;;;;5050828;28;20029;-72
2023/05/14 07:18:55;;;;;;;5.13;4.63;;;13.60;99.90;;;;;;5051361;28;20029;-72
2023/05/14 07:21:21;;;;;;;5.05;4.25;;;13.60;99.90;;;;;;5033315;28;20029;-74
2023/05/14 07:23:46;;;;;;;4.05;3.65;;;13.60;99.90;;;;;;5050804;28;20025;-72
2023/05/14 07:26:13;;;;;;;5.65;4.25;;;13.60;99.90;;;;;;5032994;28;20036;-73
2023/05/14 07:28:38;;;;;;;7.97;4.95;;;13.60;99.90;;;;;;5050669;28;20489;-72
2023/05/14 07:31:07;;;;;;;6.07;4.45;;;13.70;99.90;;;;;;5050886;28;20083;-72
2023/05/14 07:33:35;;;;;;;5.10;4.45;;;13.70;99.90;;;;;;5050707;28;20029;-73
2023/05/14 07:36:01;;;;;;;6.18;4.07;;;13.80;99.90;;;;;;5051542;28;20029;-73
2023/05/14 07:38:27;;;;;;;8.20;4.70;;;13.80;99.90;;;;;;5050305;28;20031;-73
2023/05/14 07:40:53;;;;;;;4.13;3.47;;;13.80;99.90;;;;;;5050814;28;20378;-72
2023/05/14 07:43:18;;;;;;;6.47;3.95;;;13.90;99.90;;;;;;5050665;28;20470;-72
2023/05/14 07:45:44;;;;;;;5.03;4.22;;;13.90;99.90;;;;;;5050302;28;20029;-72
2023/05/14 07:48:10;;;;;;;7.72;3.88;;;13.90;99.90;;;;;;5051035;28;20354;-72
2023/05/14 07:50:36;;;;;;;6.55;3.90;;;13.90;99.90;;;;;;5050220;28;20354;-72
2023/05/14 07:53:02;;;;;;;3.95;3.55;;;14.00;99.90;;;;;;5050690;28;20021;-72
2023/05/14 07:55:27;;;;;;;7.55;3.80;;;14.10;99.90;;;;;;5049869;28;20393;-73
2023/05/14 07:57:53;;;;;;;4.90;3.42;;;14.20;99.90;;;;;;5050510;28;20029;-71
2023/05/14 08:00:19;;;;;;;3.95;3.30;;;14.30;99.90;;;;;;5050597;28;20068;-72
2023/05/14 08:02:45;;;;;;;6.70;3.60;;;14.50;99.90;;;;;;5051837;28;20619;-72
2023/05/14 08:05:10;;;;;;;3.40;3.08;;;14.70;99.90;;;;;;5054377;28;20033;-72
2023/05/14 08:07:36;;;;;;;6.63;2.95;;;14.80;99.90;;;;;;5054107;28;20035;-71
2023/05/14 08:10:02;;;;;;;3.92;2.92;;;14.90;99.90;;;;;;5054466;28;20047;-73
2023/05/14 08:12:28;;;;;;;5.63;3.25;;;15.00;99.90;;;;;;5053920;28;20104;-72
2023/05/14 08:14:55;;;;;;;3.03;2.05;;;14.90;99.90;;;;;;5054147;28;20174;-72
2023/05/14 08:17:21;;;;;;;5.50;2.78;;;14.80;99.90;;;;;;5054434;28;20025;-72
2023/05/14 08:19:46;;;;;;;5.43;2.70;;;14.80;99.90;;;;;;5053818;28;20024;-71
2023/05/14 08:22:12;;;;;;;3.17;2.30;;;14.80;99.90;;;;;;5054303;28;20037;-72
2023/05/14 08:24:38;;;;;;;4.85;2.20;;;14.90;99.90;;;;;;5053548;28;20033;-72
2023/05/14 08:27:05;;;;;;;4.15;2.55;;;15.10;99.90;;;;;;5053816;28;20462;-72
2023/05/14 08:29:31;;;;;;;4.40;2.40;;;15.10;99.90;;;;;;5053393;28;20534;-72
2023/05/14 08:31:56;;;;;;;4.75;2.33;;;15.20;99.90;;;;;;5053665;28;20111;-72
2023/05/14 08:34:22;;;;;;;3.67;2.22;;;15.30;99.90;;;;;;5054053;28;20053;-72
2023/05/14 08:36:48;;;;;;;3.75;2.28;;;15.30;99.90;;;;;;5053534;28;20029;-72
2023/05/14 08:39:13;;;;;;;2.80;2.20;;;15.30;99.90;;;;;;5053683;28;20421;-72
2023/05/14 08:41:40;;;;;;;3.63;2.08;;;15.40;99.90;;;;;;5052941;28;20026;-71
2023/05/14 08:44:18;;;;;;;4.38;2.20;;;15.40;99.90;;;;;;5053548;28;20029;-71
2023/05/14 08:46:45;;;;;;;5.03;2.00;;;15.40;99.90;;;;;;5053110;28;20114;-71
2023/05/14 08:49:39;;;;;;;2.83;1.98;;;15.40;99.90;;;;;;5053617;28;20021;-72
2023/05/14 08:52:06;;;;;;;3.67;2.53;;;15.30;99.90;;;;;;5053247;28;20443;-72
2023/05/14 08:54:32;;;;;;;2.63;1.90;;;15.20;99.90;;;;;;5052658;28;20102;-72
2023/05/14 08:56:58;;;;;;;3.53;2.78;;;15.20;99.90;;;;;;5053587;28;20328;-73
2023/05/14 08:59:24;;;;;;;6.50;3.30;;;15.10;99.90;;;;;;5053407;28;20440;-71
2023/05/14 09:01:52;;;;;;;4.22;2.72;;;15.00;99.90;;;;;;5052548;28;20035;-72
2023/05/14 09:04:23;;;;;;;3.75;2.50;;;14.80;99.90;;;;;;5053152;28;20029;-71
2023/05/14 09:06:52;;;;;;;5.25;2.70;;;14.60;99.90;;;;;;5052717;28;20603;-72
2023/05/14 09:09:21;;;;;;;3.50;3.13;;;14.60;99.90;;;;;;5053107;28;20115;-71
2023/05/14 09:11:48;;;;;;;3.53;2.53;;;14.50;99.90;;;;;;5052380;28;20097;-72
2023/05/14 09:14:14;;;;;;;2.92;2.33;;;14.40;99.90;;;;;;5052152;28;20021;-72
2023/05/14 09:16:41;;;;;;;3.50;2.08;;;14.30;99.90;;;;;;5052447;28;20028;-71
2023/05/14 09:19:07;;;;;;;2.50;2.25;;;14.20;99.90;;;;;;5052895;28;20474;-72
2023/05/14 09:21:34;;;;;;;3.35;2.20;;;14.20;99.90;;;;;;5052645;28;20148;-73
2023/05/14 09:24:00;;;;;;;3.97;2.60;;;14.30;99.90;;;;;;5052855;28;20091;-73
2023/05/14 09:26:27;;;;;;;3.55;2.40;;;14.40;99.90;;;;;;5053003;28;20033;-73
2023/05/14 09:28:55;;;;;;;4.22;2.60;;;14.50;99.90;;;;;;5052915;28;20029;-73
2023/05/14 09:31:21;;;;;;;3.08;2.63;;;14.50;99.90;;;;;;5053032;28;20118;-73
2023/05/14 09:33:52;;;;;;;3.75;2.70;;;14.60;99.90;;;;;;5052370;28;20458;-72
2023/05/14 09:36:18;;;;;;;4.22;2.90;;;14.80;99.90;;;;;;5052955;28;20082;-72
2023/05/14 09:38:44;;;;;;;2.85;2.10;;;14.80;99.90;;;;;;5052209;28;20132;-73
2023/05/14 09:41:10;;;;;;;2.20;2.00;;;14.90;99.90;;;;;;5052427;28;20115;-72
2023/05/14 09:43:36;;;;;;;2.83;2.00;;;15.10;99.90;;;;;;5052278;28;20466;-72
2023/05/14 09:46:02;;;;;;;2.00;1.88;;;15.10;99.90;;;;;;5052709;28;20138;-72
2023/05/14 09:48:28;;;;;;;2.03;1.80;;;15.20;99.90;;;;;;5052601;28;20391;-72
2023/05/14 09:50:54;;;;;;;1.42;1.33;;;15.20;99.90;;;;;;5052107;28;20419;-72
2023/05/14 09:53:20;;;;;;;2.38;1.38;;;15.30;99.90;;;;;;5052543;28;20436;-72
2023/05/14 09:55:45;;;;;;;1.50;1.38;;;15.30;99.90;;;;;;5051905;28;20189;-72
2023/05/14 09:58:14;;;;;;;2.85;1.50;;;15.30;99.90;;;;;;5052519;28;20071;-73
2023/05/14 10:00:44;;;;;;;2.65;1.55;;;15.30;99.90;;;;;;5051915;28;20029;-73
2023/05/14 10:03:12;;;;;;;2.75;1.50;;;15.40;99.90;;;;;;5052713;28;20035;-74
2023/05/14 10:05:41;;;;;;;1.45;1.35;;;15.40;99.90;;;;;;5051570;28;20033;-72
2023/05/14 10:08:32;;;;;;;1.70;1.60;;;15.50;99.90;;;;;;5052031;28;20029;-72
2023/05/14 10:10:58;;;;;;;2.17;1.42;;;15.50;99.90;;;;;;5051724;28;20053;-73
2023/05/14 10:13:29;;;;;;;2.38;1.60;;;15.50;99.90;;;;;;5051933;28;20036;-73
2023/05/14 10:16:07;;;;;;;2.25;1.13;;;15.60;99.90;;;;;;5051452;28;20026;-73
2023/05/14 10:18:39;;;;;;;1.50;1.38;;;15.70;99.90;;;;;;5051695;28;20037;-73
2023/05/14 10:21:06;;;;;;;;;;;15.60;99.90;;;;;;5052597;28;20167;-72
2023/05/14 10:23:33;;;;;;;1.85;1.60;;;15.50;99.90;;;;;;5051592;28;19950;-75
2023/05/14 10:26:00;;;;;;;1.65;1.17;;;15.40;99.90;;;;;;5051490;28;20116;-73
2023/05/14 10:28:26;;;;;;;1.70;1.27;;;15.30;99.90;;;;;;5051495;28;20021;-72
2023/05/14 10:30:53;;;;;;;2.50;1.30;;;15.20;99.90;;;;;;5050681;28;20052;-73
2023/05/14 10:33:19;;;;;;;1.70;1.60;;;15.10;99.90;;;;;;5051663;28;20108;-73
2023/05/14 10:36:04;;;;;;;1.92;1.73;;;15.10;99.90;;;;;;5051365;28;20108;-72
2023/05/14 10:38:33;;;;;;;1.70;1.60;;;15.00;99.90;;;;;;5051735;28;20021;-72
2023/05/14 10:41:00;;;;;;;2.25;2.05;;;14.90;99.90;;;;;;5051100;28;20027;-73
2023/05/14 10:43:29;;;;;;;1.90;1.58;;;14.90;99.90;;;;;;5051661;28;20043;-73
2023/05/14 10:45:56;;;;;;;1.98;1.75;;;15.00;99.90;;;;;;5051186;28;20043;-73
2023/05/14 10:48:22;;;;;;;2.17;1.33;;;15.00;99.90;;;;;;5051453;28;20443;-72
2023/05/14 10:50:50;;;;;;;2.00;1.80;;;15.00;99.90;;;;;;5050977;28;20445;-72
2023/05/14 10:53:16;;;;;;;1.40;1.30;;;15.10;99.90;;;;;;5051875;28;20370;-72
2023/05/14 10:55:42;;;;;;;2.28;1.40;;;15.10;99.90;;;;;;5050874;28;20025;-72
2023/05/14 10:58:09;;;;;;;1.83;1.70;;;15.20;99.90;;;;;;5051347;28;20430;-71
2023/05/14 11:00:36;;;;;;;1.70;1.60;;;15.40;99.90;;;;;;5050999;28;20037;-77
2023/05/14 11:03:06;;;;;;;1.83;1.70;;;15.40;99.90;;;;;;5050966;28;20025;-72
2023/05/14 11:05:34;;;;;;;1.17;1.17;;;15.60;99.90;;;;;;5051391;28;20041;-72
2023/05/14 11:08:04;;;;;;;1.05;1.00;;;15.60;99.90;;;;;;5033190;28;20021;-72
2023/05/14 11:10:31;;;;;;;1.45;1.33;;;15.70;99.90;;;;;;5051495;28;20135;-73
2023/05/14 11:12:57;;;;;;;1.40;1.30;;;15.80;99.90;;;;;;5050752;28;20111;-73
2023/05/14 11:15:27;;;;;;;1.23;1.13;;;15.90;99.90;;;;;;5051047;28;20061;-71
2023/05/14 11:17:53;;;;;;;2.53;1.00;;;16.00;99.90;;;;;;5050769;28;20099;-72
2023/05/14 11:20:20;;;;;;;2.38;1.10;;;15.90;99.90;;;;;;5051088;28;20049;-72
2023/05/14 11:22:47;;;;;;;2.22;1.77;;;15.80;99.90;;;;;;5050557;28;20115;-72
2023/05/14 11:25:14;;;;;;;1.45;0.80;;;15.70;99.90;;;;;;5050614;28;20033;-72
2023/05/14 11:27:41;;;;;;;1.05;0.80;;;15.50;99.90;;;;;;5050221;28;20417;-73
2023/05/14 11:30:18;;;;;;;1.05;0.90;;;15.10;99.90;;;;;;5050875;28;20477;-71
2023/05/14 11:32:46;;;;;;;0.75;0.75;;;14.80;99.90;;;;;;5050954;28;20462;-72
2023/05/14 11:35:13;;;;;;;1.23;0.90;;;14.50;99.90;;;;;;5051190;28;20028;-71
2023/05/14 11:37:39;;;;;;;1.02;0.90;;;14.40;99.90;;;;;;5051377;28;20033;-74
2023/05/14 11:40:11;;;;;;;1.67;0.77;;;14.20;99.90;;;;;;5051706;28;20296;-72
2023/05/14 11:42:37;;;;;;;1.47;1.03;;;14.20;99.90;;;;;;5051048;28;20476;-71
2023/05/14 11:45:04;;;;;;;0.93;0.90;;;14.10;99.90;;;;;;5050665;28;20364;-71
2023/05/14 11:47:30;;;;;;;1.42;0.88;;;14.20;99.90;;;;;;5050543;28;20171;-71
2023/05/14 11:49:56;;;;;;;0.95;0.85;;;14.10;99.90;;;;;;5049798;28;20036;-71
2023/05/14 11:52:22;;;;;;;1.77;1.02;;;14.10;99.90;;;;;;5050577;28;20037;-72
2023/05/14 11:54:49;;;;;;;1.88;1.00;;;14.10;99.90;;;;;;5050102;28;20474;-72
2023/05/14 11:57:17;;;;;;;1.00;0.90;;;14.00;99.90;;;;;;5050382;28;20025;-72
2023/05/14 11:59:44;;;;;;;2.53;0.95;;;14.00;99.90;;;;;;5049778;28;20054;-72
2023/05/14 12:02:12;;;;;;;1.45;0.82;;;13.90;99.90;;;;;;5050366;28;20029;-72
2023/05/14 12:04:40;;;;;;;1.60;1.10;;;13.90;99.90;;;;;;5049987;28;20128;-74
2023/05/14 12:07:11;;;;;;;1.33;0.95;;;14.00;99.90;;;;;;5050706;28;20029;-72
2023/05/14 12:09:47;;;;;;;3.10;1.17;;;14.20;99.90;;;;;;5050214;28;20143;-71
2023/05/14 12:12:14;;;;;;;2.10;0.93;;;14.40;99.90;;;;;;5050387;28;20091;-72
2023/05/14 12:14:41;;;;;;;1.10;1.00;;;14.70;99.90;;;;;;5050129;28;20025;-74
2023/05/14 12:17:22;;;;;;;1.10;1.00;;;14.90;99.90;;;;;;5050760;28;20029;-73
2023/05/14 12:19:50;;;;;;;3.30;1.23;;;14.90;99.90;;;;;;5050342;28;20063;-73
2023/05/14 12:22:18;;;;;;;1.92;1.10;;;15.10;99.90;;;;;;5050645;28;20087;-73
2023/05/14 12:24:56;;;;;;;1.55;0.82;;;15.20;99.90;;;;;;5032006;28;20043;-72
2023/05/14 12:27:23;;;;;;;3.53;1.02;;;15.50;99.90;;;;;;5032764;28;20025;-73
2023/05/14 12:29:56;;;;;;;1.88;1.00;;;15.70;99.90;;;;;;5049542;28;20122;-73
2023/05/14 12:32:24;;;;;;;1.20;0.85;;;15.50;99.90;;;;;;5050522;28;20017;-73
2023/05/14 12:34:50;;;;;;;2.53;1.45;;;15.40;99.90;;;;;;5050001;28;20032;-72
2023/05/14 12:37:17;;;;;;;2.33;0.93;;;15.40;99.90;;;;;;5050563;28;20033;-72
2023/05/14 12:39:43;;;;;;;3.10;1.30;;;15.30;99.90;;;;;;5050218;28;20025;-75
2023/05/14 12:42:08;;;;;;;3.42;1.40;;;15.30;99.90;;;;;;5049905;28;20036;-73
2023/05/14 12:44:34;;;;;;;1.67;1.35;;;15.40;99.90;;;;;;5050205;28;20028;-73